Time;durP1;ratioP1;P1;durP2;ratioP2;P2;SDS_P1;SDS_P2;PMS_P1;PMS_P2;Temp;Humidity;BMP_temperature;BMP_pressure;BME280_temperature;BME280_humidity;BME280_pressure;Samples;Min_cycle;Max_cycle;Signal;HPM_P1;HPM_P2
2022/07/12 00:01:21;;;;;;;2.72;1.33;;;18.60;99.90;;;;;;5030205;28;20432;-64
2022/07/12 00:03:46;;;;;;;2.75;1.30;;;18.60;99.90;;;;;;5035882;28;20435;-64
2022/07/12 00:06:12;;;;;;;2.60;0.80;;;18.60;99.90;;;;;;5040044;28;20036;-64
2022/07/12 00:08:38;;;;;;;4.00;1.10;;;18.50;99.90;;;;;;5041927;28;20091;-64
2022/07/12 00:11:04;;;;;;;1.13;0.93;;;18.50;99.90;;;;;;5032402;28;20556;-64
2022/07/12 00:13:30;;;;;;;2.28;1.20;;;18.30;99.90;;;;;;5033726;28;20029;-64
2022/07/12 00:15:57;;;;;;;2.08;1.20;;;18.20;99.90;;;;;;5038435;28;20427;-63
2022/07/12 00:18:23;;;;;;;1.38;1.00;;;18.20;99.90;;;;;;5035121;28;20631;-63
2022/07/12 00:20:49;;;;;;;1.40;0.98;;;18.20;99.90;;;;;;5038036;28;20029;-63
2022/07/12 00:23:16;;;;;;;2.78;1.02;;;18.10;99.90;;;;;;5043522;28;20045;-64
2022/07/12 00:25:42;;;;;;;2.15;1.00;;;18.10;99.90;;;;;;5041201;28;20108;-64
2022/07/12 00:28:08;;;;;;;1.75;0.88;;;18.10;99.90;;;;;;5039033;28;20124;-64
2022/07/12 00:30:34;;;;;;;1.30;0.90;;;18.10;99.90;;;;;;5029089;28;20028;-63
2022/07/12 00:33:00;;;;;;;4.63;0.82;;;18.20;99.90;;;;;;5031851;28;20477;-63
2022/07/12 00:35:25;;;;;;;1.33;1.05;;;18.10;99.90;;;;;;5039446;28;20063;-63
2022/07/12 00:37:51;;;;;;;1.80;1.20;;;18.10;99.90;;;;;;5035812;28;20029;-63
2022/07/12 00:40:17;;;;;;;2.13;1.17;;;18.10;99.90;;;;;;5032798;28;20477;-63
2022/07/12 00:42:43;;;;;;;3.17;1.10;;;18.10;99.90;;;;;;5029424;28;20045;-63
2022/07/12 00:45:09;;;;;;;1.52;0.70;;;18.20;99.90;;;;;;5039448;28;20428;-63
2022/07/12 00:47:44;;;;;;;2.10;0.93;;;18.10;99.90;;;;;;5031791;28;20029;-63
2022/07/12 00:50:18;;;;;;;4.38;0.88;;;18.10;99.90;;;;;;5043732;28;20032;-63
2022/07/12 00:52:47;;;;;;;3.42;1.15;;;18.00;99.90;;;;;;5030893;28;20041;-63
2022/07/12 00:55:14;;;;;;;1.80;1.08;;;17.90;99.90;;;;;;5033932;28;20381;-62
2022/07/12 00:57:42;;;;;;;1.10;0.82;;;17.80;99.90;;;;;;5037692;28;20435;-63
2022/07/12 01:00:10;;;;;;;3.28;1.08;;;17.80;99.90;;;;;;5031345;28;20033;-63
2022/07/12 01:02:37;;;;;;;1.80;1.00;;;17.70;99.90;;;;;;5036654;28;20485;-63
2022/07/12 01:05:06;;;;;;;1.17;1.00;;;17.80;99.90;;;;;;5030813;28;20029;-63
2022/07/12 01:07:34;;;;;;;1.05;0.95;;;17.80;99.90;;;;;;5026310;28;20046;-62
2022/07/12 01:10:00;;;;;;;2.67;1.10;;;17.80;99.90;;;;;;5034662;28;20546;-63
2022/07/12 01:12:26;;;;;;;3.25;0.90;;;17.80;99.90;;;;;;5029436;28;20033;-64
2022/07/12 01:14:53;;;;;;;1.20;1.10;;;17.80;99.90;;;;;;5033896;28;20067;-64
2022/07/12 01:17:21;;;;;;;3.38;1.08;;;17.70;99.90;;;;;;5030594;28;20017;-64
2022/07/12 01:19:50;;;;;;;2.15;1.23;;;17.70;99.90;;;;;;5032128;28;20067;-63
2022/07/12 01:22:18;;;;;;;3.63;1.25;;;17.60;99.90;;;;;;5029096;28;20072;-63
2022/07/12 01:24:45;;;;;;;2.67;1.08;;;17.50;99.90;;;;;;5035060;28;20030;-64
2022/07/12 01:27:12;;;;;;;4.50;1.60;;;17.40;99.90;;;;;;5021935;28;20037;-60
2022/07/12 01:29:39;;;;;;;2.67;1.20;;;17.30;99.90;;;;;;5028408;28;20037;-63
2022/07/12 01:32:24;;;;;;;5.22;1.50;;;17.30;99.90;;;;;;5030209;28;20128;-62
2022/07/12 01:35:03;;;;;;;1.92;1.00;;;17.20;99.90;;;;;;5031517;28;20032;-62
2022/07/12 01:37:32;;;;;;;3.13;1.45;;;17.20;99.90;;;;;;5033546;28;20048;-63
2022/07/12 01:39:59;;;;;;;3.90;1.60;;;17.10;99.90;;;;;;5034459;28;20021;-62
2022/07/12 01:42:27;;;;;;;2.25;1.30;;;17.00;99.90;;;;;;5033991;28;20022;-62
2022/07/12 01:44:53;;;;;;;1.35;1.10;;;16.90;99.90;;;;;;5027657;28;20436;-62
2022/07/12 01:47:20;;;;;;;3.92;1.00;;;16.90;99.90;;;;;;5035069;28;20037;-62
2022/07/12 01:49:46;;;;;;;1.55;0.98;;;17.00;99.90;;;;;;5038047;28;20087;-62
2022/07/12 01:52:12;;;;;;;2.33;1.30;;;17.00;99.90;;;;;;5037337;28;20100;-62
2022/07/12 01:54:39;;;;;;;2.85;1.10;;;16.90;99.90;;;;;;5031951;28;20043;-62
2022/07/12 01:57:05;;;;;;;3.45;1.13;;;16.90;99.90;;;;;;5029894;28;20029;-62
2022/07/12 01:59:32;;;;;;;4.45;1.98;;;16.80;99.90;;;;;;5031052;28;20037;-62
2022/07/12 02:01:58;;;;;;;2.03;1.27;;;16.70;99.90;;;;;;5028729;28;20493;-63
2022/07/12 02:04:24;;;;;;;1.77;1.13;;;16.70;99.90;;;;;;5034736;28;20029;-64
2022/07/12 02:06:50;;;;;;;2.90;1.00;;;16.70;99.90;;;;;;5030901;28;20030;-63
2022/07/12 02:09:16;;;;;;;1.90;1.20;;;16.80;99.90;;;;;;5030168;28;20045;-63
2022/07/12 02:11:43;;;;;;;3.15;1.33;;;16.70;99.90;;;;;;5028633;28;20113;-63
2022/07/12 02:14:10;;;;;;;1.67;0.90;;;16.60;99.90;;;;;;5026887;28;20519;-63
2022/07/12 02:16:35;;;;;;;2.08;1.35;;;16.60;99.90;;;;;;5026628;28;20060;-63
2022/07/12 02:19:02;;;;;;;2.05;1.30;;;16.70;99.90;;;;;;5026646;28;20064;-63
2022/07/12 02:21:27;;;;;;;2.45;1.63;;;16.60;99.90;;;;;;5032414;28;20105;-63
2022/07/12 02:23:53;;;;;;;2.10;1.17;;;16.70;99.90;;;;;;5032158;28;20029;-62
2022/07/12 02:26:19;;;;;;;1.27;1.00;;;16.70;99.90;;;;;;5038769;28;20023;-61
2022/07/12 02:28:44;;;;;;;2.75;1.23;;;16.70;99.90;;;;;;5028534;28;20034;-62
2022/07/12 02:31:10;;;;;;;3.92;1.60;;;16.60;99.90;;;;;;5031532;28;20065;-62
2022/07/12 02:33:36;;;;;;;3.10;1.13;;;16.60;99.90;;;;;;5036810;28;20075;-61
2022/07/12 02:36:02;;;;;;;2.58;1.42;;;16.60;99.90;;;;;;5034006;28;20025;-62
2022/07/12 02:38:28;;;;;;;3.90;1.42;;;16.70;99.90;;;;;;5039616;28;20495;-62
2022/07/12 02:40:54;;;;;;;2.03;1.20;;;16.70;99.90;;;;;;5031525;28;20033;-63
2022/07/12 02:43:24;;;;;;;3.92;1.20;;;16.60;99.90;;;;;;5028311;28;20477;-62
2022/07/12 02:45:51;;;;;;;3.25;0.93;;;16.70;99.90;;;;;;5025485;28;20026;-62
2022/07/12 02:48:17;;;;;;;3.25;1.23;;;16.70;99.90;;;;;;5029580;28;20082;-63
2022/07/12 02:50:43;;;;;;;1.20;1.10;;;16.80;99.90;;;;;;5033406;28;20030;-63
2022/07/12 02:53:10;;;;;;;1.67;1.17;;;16.80;99.90;;;;;;5032117;28;20036;-63
2022/07/12 02:55:36;;;;;;;3.28;1.27;;;16.80;99.90;;;;;;5023357;28;20037;-62
2022/07/12 02:58:02;;;;;;;2.58;1.25;;;16.70;99.90;;;;;;5031836;28;20124;-62
2022/07/12 03:00:30;;;;;;;1.88;1.20;;;16.70;99.90;;;;;;5030013;28;20072;-62
2022/07/12 03:02:55;;;;;;;1.95;1.42;;;16.70;99.90;;;;;;5030005;28;20072;-63
2022/07/12 03:05:21;;;;;;;1.75;1.20;;;16.80;99.90;;;;;;5039920;28;20492;-63
2022/07/12 03:07:46;;;;;;;1.95;1.33;;;16.80;99.90;;;;;;5026798;28;20033;-62
2022/07/12 03:10:12;;;;;;;2.75;1.13;;;16.80;99.90;;;;;;5032086;28;20026;-62
2022/07/12 03:12:38;;;;;;;1.52;1.23;;;16.80;99.90;;;;;;5030162;28;20029;-63
2022/07/12 03:15:07;;;;;;;1.08;0.98;;;16.80;99.90;;;;;;5032975;28;20036;-62
2022/07/12 03:17:34;;;;;;;3.72;1.85;;;16.70;99.90;;;;;;5030808;28;20030;-62
2022/07/12 03:19:59;;;;;;;1.70;1.20;;;16.70;99.90;;;;;;5035816;28;20469;-62
2022/07/12 03:22:25;;;;;;;1.55;1.20;;;16.70;99.90;;;;;;5024476;28;20045;-62
2022/07/12 03:24:51;;;;;;;1.98;1.40;;;16.80;99.90;;;;;;5039551;28;20037;-62
2022/07/12 03:27:18;;;;;;;5.10;1.42;;;16.70;99.90;;;;;;5034531;28;20147;-63
2022/07/12 03:29:44;;;;;;;3.17;1.33;;;16.60;99.90;;;;;;5031244;28;20029;-63
2022/07/12 03:32:09;;;;;;;1.83;1.55;;;16.60;99.90;;;;;;5040722;28;20398;-63
2022/07/12 03:34:36;;;;;;;2.35;1.60;;;16.50;99.90;;;;;;5041771;28;20029;-63
2022/07/12 03:37:03;;;;;;;3.65;1.40;;;16.50;99.90;;;;;;5040877;28;20041;-62
2022/07/12 03:39:29;;;;;;;2.22;1.25;;;16.50;99.90;;;;;;5039210;28;20485;-64
2022/07/12 03:41:54;;;;;;;3.20;1.58;;;16.50;99.90;;;;;;5038165;28;20033;-63
2022/07/12 03:44:20;;;;;;;2.00;1.73;;;16.50;99.90;;;;;;5038536;28;20021;-63
2022/07/12 03:46:47;;;;;;;3.20;1.40;;;16.40;99.90;;;;;;5036546;28;20034;-64
2022/07/12 03:49:13;;;;;;;1.98;1.45;;;16.40;99.90;;;;;;5027297;28;20038;-64
2022/07/12 03:51:39;;;;;;;3.40;1.75;;;16.30;99.90;;;;;;5041062;28;20033;-64
2022/07/12 03:54:07;;;;;;;5.22;1.58;;;16.20;99.90;;;;;;5041444;28;20492;-63
2022/07/12 03:59:18;;;;;;;6.03;2.90;;;16.10;99.90;;;;;;5039926;28;20044;-63
2022/07/12 04:01:44;;;;;;;2.72;1.80;;;16.10;99.90;;;;;;5044809;28;20033;-64
2022/07/12 04:04:09;;;;;;;3.40;1.60;;;16.00;99.90;;;;;;5036983;28;20021;-63
2022/07/12 04:06:35;;;;;;;4.07;2.00;;;16.00;99.90;;;;;;5031433;28;20386;-63
2022/07/12 04:09:01;;;;;;;3.03;1.55;;;16.10;99.90;;;;;;5037465;28;20029;-63
2022/07/12 04:11:26;;;;;;;3.47;1.70;;;16.10;99.90;;;;;;5032620;28;20120;-63
2022/07/12 04:13:52;;;;;;;5.03;2.40;;;16.00;99.90;;;;;;5041759;28;20079;-62
2022/07/12 04:16:18;;;;;;;2.33;1.63;;;16.00;99.90;;;;;;5033664;28;20053;-62
2022/07/12 04:18:43;;;;;;;4.05;2.03;;;16.10;99.90;;;;;;5038398;28;20033;-62
2022/07/12 04:21:09;;;;;;;3.10;1.90;;;16.10;99.90;;;;;;5032261;28;20054;-62
2022/07/12 04:23:35;;;;;;;3.95;1.50;;;16.10;99.90;;;;;;5034087;28;20030;-62
2022/07/12 04:26:00;;;;;;;2.85;1.60;;;16.20;99.90;;;;;;5030995;28;20063;-63
2022/07/12 04:28:26;;;;;;;1.67;1.48;;;16.20;99.90;;;;;;5033349;28;20041;-63
2022/07/12 04:30:52;;;;;;;3.17;1.70;;;16.20;99.90;;;;;;5040172;28;20029;-62
2022/07/12 04:33:17;;;;;;;4.88;2.03;;;16.30;99.90;;;;;;5038307;28;20035;-62
2022/07/12 04:35:43;;;;;;;3.42;1.67;;;16.30;99.90;;;;;;5031692;28;20113;-62
2022/07/12 04:38:08;;;;;;;3.63;1.60;;;16.40;99.90;;;;;;5031370;28;20393;-63
2022/07/12 04:40:34;;;;;;;8.68;2.20;;;16.50;99.90;;;;;;5036532;28;20469;-62
2022/07/12 04:43:00;;;;;;;3.17;2.00;;;16.50;99.90;;;;;;5036889;28;20097;-62
2022/07/12 04:45:25;;;;;;;4.93;2.28;;;16.60;99.90;;;;;;5039091;28;20049;-62
2022/07/12 04:47:51;;;;;;;1.83;1.52;;;16.60;99.90;;;;;;5032169;28;20117;-62
2022/07/12 04:50:17;;;;;;;5.05;2.00;;;16.70;99.90;;;;;;5028047;28;20026;-62
2022/07/12 04:52:42;;;;;;;2.33;1.80;;;16.70;99.90;;;;;;5032829;28;20037;-63
2022/07/12 04:55:09;;;;;;;5.63;1.90;;;16.80;99.90;;;;;;5032525;28;20029;-63
2022/07/12 04:57:35;;;;;;;8.40;2.10;;;16.90;99.90;;;;;;5034827;28;20025;-62
2022/07/12 05:00:01;;;;;;;4.15;1.60;;;17.00;99.90;;;;;;5030395;28;20108;-64
2022/07/12 05:02:26;;;;;;;3.13;1.98;;;17.10;99.90;;;;;;5032204;28;20163;-64
2022/07/12 05:04:52;;;;;;;2.55;1.80;;;17.20;99.90;;;;;;5030259;28;20061;-64
2022/07/12 05:07:18;;;;;;;2.72;1.85;;;17.30;99.90;;;;;;5034759;28;20565;-64
2022/07/12 05:09:44;;;;;;;3.45;1.92;;;17.40;99.90;;;;;;5032661;28;20079;-63
2022/07/12 05:12:09;;;;;;;4.47;1.77;;;17.40;99.90;;;;;;5031459;28;20029;-62
2022/07/12 05:14:35;;;;;;;4.32;2.00;;;17.50;99.90;;;;;;5028666;28;20060;-64
2022/07/12 05:17:01;;;;;;;5.68;2.25;;;17.60;99.90;;;;;;5036535;28;20025;-64
2022/07/12 05:19:26;;;;;;;3.08;1.75;;;17.70;99.90;;;;;;5040446;28;20033;-64
2022/07/12 05:21:52;;;;;;;6.55;2.17;;;17.80;99.90;;;;;;5036158;28;20049;-64
2022/07/12 05:24:18;;;;;;;4.65;2.03;;;18.00;99.90;;;;;;5033099;28;20039;-63
2022/07/12 05:26:43;;;;;;;7.30;2.20;;;18.10;99.90;;;;;;5028616;28;20060;-62
2022/07/12 05:29:09;;;;;;;4.32;2.40;;;18.30;99.90;;;;;;5037104;28;20028;-62
2022/07/12 05:31:35;;;;;;;3.33;1.90;;;18.40;99.90;;;;;;5029176;28;20028;-63
2022/07/12 05:34:01;;;;;;;3.72;2.20;;;18.40;99.90;;;;;;5033851;28;20075;-63
2022/07/12 05:36:27;;;;;;;4.63;2.20;;;18.50;99.90;;;;;;5043653;28;20086;-63
2022/07/12 05:38:52;;;;;;;6.82;2.10;;;18.60;99.90;;;;;;5028892;28;20022;-63
2022/07/12 05:41:18;;;;;;;3.05;1.88;;;18.60;99.90;;;;;;5029530;28;20056;-61
2022/07/12 05:43:44;;;;;;;5.25;2.33;;;18.70;99.90;;;;;;5029654;28;20033;-64
2022/07/12 05:46:10;;;;;;;4.70;2.20;;;18.80;99.90;;;;;;5033330;28;20062;-64
2022/07/12 05:48:39;;;;;;;7.47;2.38;;;18.90;99.90;;;;;;5034772;28;20033;-64
2022/07/12 05:53:50;;;;;;;2.53;1.80;;;18.90;99.90;;;;;;5025810;28;20492;-65
2022/07/12 05:56:16;;;;;;;5.70;1.90;;;19.00;99.90;;;;;;5030576;28;20033;-63
2022/07/12 05:58:42;;;;;;;3.70;2.13;;;19.20;99.90;;;;;;5029180;28;20047;-64
2022/07/12 06:01:08;;;;;;;2.80;1.77;;;19.20;99.90;;;;;;5030050;28;20532;-64
2022/07/12 06:03:34;;;;;;;3.33;2.10;;;19.20;99.90;;;;;;5038709;28;20124;-65
2022/07/12 06:05:59;;;;;;;7.80;2.58;;;19.30;99.90;;;;;;5029243;28;20116;-65
2022/07/12 06:08:25;;;;;;;3.60;1.88;;;19.20;99.90;;;;;;5032950;28;20112;-64
2022/07/12 06:10:51;;;;;;;9.15;2.38;;;19.20;99.90;;;;;;5035958;28;20488;-64
2022/07/12 06:13:17;;;;;;;6.65;2.03;;;19.30;99.90;;;;;;5031340;28;20514;-64
2022/07/12 06:15:42;;;;;;;6.50;2.10;;;19.30;99.90;;;;;;5028328;28;20026;-64
2022/07/12 06:18:08;;;;;;;10.82;2.13;;;19.30;99.90;;;;;;5037412;28;20033;-64
2022/07/12 06:20:34;;;;;;;5.13;2.17;;;19.30;99.90;;;;;;5038522;28;20071;-63
2022/07/12 06:23:00;;;;;;;6.07;2.78;;;19.50;99.90;;;;;;5041368;28;20138;-64
2022/07/12 06:25:26;;;;;;;6.45;2.45;;;19.60;99.90;;;;;;5032107;28;20037;-64
2022/07/12 06:27:51;;;;;;;4.10;2.00;;;19.70;99.90;;;;;;5038424;28;20718;-63
2022/07/12 06:30:21;;;;;;;3.58;1.83;;;19.80;99.90;;;;;;5035102;28;20430;-64
2022/07/12 06:32:48;;;;;;;3.53;2.30;;;19.90;99.90;;;;;;5036398;28;20029;-62
2022/07/12 06:35:14;;;;;;;2.58;1.73;;;20.00;99.90;;;;;;5028441;28;20034;-62
2022/07/12 06:37:41;;;;;;;4.85;2.60;;;20.10;99.90;;;;;;5029864;28;20059;-62
2022/07/12 06:40:08;;;;;;;6.85;2.20;;;20.20;99.90;;;;;;5037546;28;20124;-62
2022/07/12 06:42:34;;;;;;;4.53;2.30;;;20.20;99.90;;;;;;5035547;28;20069;-62
2022/07/12 06:45:00;;;;;;;4.00;1.90;;;20.20;99.90;;;;;;5034546;28;20104;-62
2022/07/12 06:47:26;;;;;;;6.10;3.28;;;20.30;99.90;;;;;;5025627;28;20423;-63
2022/07/12 06:49:51;;;;;;;4.20;2.65;;;20.30;99.90;;;;;;5021002;28;20298;-63
2022/07/12 06:52:17;;;;;;;4.82;2.40;;;20.40;99.90;;;;;;5021128;28;20037;-63
2022/07/12 06:54:43;;;;;;;6.00;2.42;;;20.50;99.90;;;;;;5023920;28;20430;-63
2022/07/12 06:57:08;;;;;;;4.63;1.92;;;20.50;99.90;;;;;;5026158;28;20117;-62
2022/07/12 06:59:34;;;;;;;6.82;2.55;;;20.60;99.90;;;;;;5029296;28;20535;-62
2022/07/12 07:02:00;;;;;;;6.82;2.20;;;20.60;99.90;;;;;;5028515;28;20060;-61
2022/07/12 07:04:26;;;;;;;7.32;2.17;;;20.60;99.90;;;;;;5019490;28;20434;-62
2022/07/12 07:06:51;;;;;;;5.25;2.03;;;20.70;99.90;;;;;;5030158;28;20458;-64
2022/07/12 07:09:17;;;;;;;8.50;2.22;;;20.70;99.90;;;;;;5027289;28;20041;-62
2022/07/12 07:11:43;;;;;;;7.63;1.92;;;20.80;99.90;;;;;;5024424;28;20044;-63
2022/07/12 07:14:09;;;;;;;8.27;2.40;;;20.90;99.90;;;;;;5013015;28;20037;-63
2022/07/12 07:16:35;;;;;;;5.13;2.25;;;21.00;99.90;;;;;;5030192;28;20021;-62
2022/07/12 07:19:02;;;;;;;10.40;2.47;;;21.20;99.90;;;;;;5022905;28;20108;-63
2022/07/12 07:21:28;;;;;;;6.82;2.58;;;21.30;99.90;;;;;;5029456;28;20106;-62
2022/07/12 07:23:54;;;;;;;4.68;2.13;;;21.40;99.90;;;;;;5030750;28;20025;-62
2022/07/12 07:26:21;;;;;;;3.90;2.45;;;21.40;99.90;;;;;;5034365;28;20087;-62
2022/07/12 07:31:37;;;;;;;8.70;1.98;;;21.50;99.90;;;;;;5028718;28;20087;-63
2022/07/12 07:34:03;;;;;;;8.25;2.42;;;21.60;99.90;;;;;;5033795;28;20032;-63
2022/07/12 07:36:30;;;;;;;6.63;2.15;;;21.70;99.90;;;;;;5029366;28;20043;-63
2022/07/12 07:38:56;;;;;;;5.88;1.77;;;21.90;99.90;;;;;;5031511;28;20440;-63
2022/07/12 07:41:22;;;;;;;4.75;2.00;;;21.90;99.90;;;;;;5033007;28;20033;-62
2022/07/12 07:43:48;;;;;;;12.38;2.08;;;22.20;99.90;;;;;;5034394;28;20033;-63
2022/07/12 07:46:13;;;;;;;3.05;1.30;;;22.50;99.90;;;;;;5028544;28;20476;-62
2022/07/12 07:48:39;;;;;;;3.15;1.65;;;22.60;99.90;;;;;;5035320;28;20037;-62
2022/07/12 07:51:05;;;;;;;2.55;1.40;;;22.80;99.90;;;;;;5035750;28;20470;-62
2022/07/12 07:53:30;;;;;;;4.68;1.33;;;23.00;99.90;;;;;;5031340;28;20159;-63
2022/07/12 07:55:57;;;;;;;4.63;1.30;;;23.10;99.90;;;;;;5023487;28;20028;-62
2022/07/12 07:58:23;;;;;;;3.83;1.17;;;23.30;99.90;;;;;;5035976;28;20037;-62
2022/07/12 08:00:50;;;;;;;10.05;1.42;;;23.40;99.90;;;;;;5026700;28;20037;-62
2022/07/12 08:03:17;;;;;;;3.22;1.17;;;23.50;99.90;;;;;;5035217;28;20021;-62
2022/07/12 08:05:42;;;;;;;6.78;1.35;;;23.50;99.90;;;;;;5038804;28;20608;-62
2022/07/12 08:08:08;;;;;;;11.55;1.58;;;23.60;99.90;;;;;;5032064;28;20172;-62
2022/07/12 08:10:34;;;;;;;3.83;1.20;;;23.60;99.90;;;;;;5025812;28;20030;-61
2022/07/12 08:13:00;;;;;;;5.20;1.45;;;23.80;99.90;;;;;;5033492;28;20086;-63
2022/07/12 08:15:26;;;;;;;4.53;1.65;;;23.80;99.90;;;;;;5033572;28;20108;-63
2022/07/12 08:17:51;;;;;;;3.10;1.17;;;23.70;99.90;;;;;;5032271;28;20049;-63
2022/07/12 08:20:17;;;;;;;4.03;1.45;;;23.80;99.90;;;;;;5040582;28;20036;-63
2022/07/12 08:22:47;;;;;;;2.80;1.13;;;24.00;99.90;;;;;;5032896;28;21721;-63
2022/07/12 08:25:16;;;;;;;2.40;1.10;;;24.00;99.90;;;;;;5026458;28;20026;-63
2022/07/12 08:27:42;;;;;;;6.40;1.23;;;24.20;99.90;;;;;;5017659;28;20041;-63
2022/07/12 08:30:09;;;;;;;1.77;1.00;;;24.30;99.90;;;;;;5026097;28;20062;-61
2022/07/12 08:32:35;;;;;;;4.30;1.75;;;24.30;99.90;;;;;;5021667;28;20033;-61
2022/07/12 08:35:01;;;;;;;3.53;1.23;;;24.40;99.90;;;;;;5023593;28;20045;-63
2022/07/12 08:37:27;;;;;;;9.15;1.67;;;24.60;99.90;;;;;;5024740;28;20136;-63
2022/07/12 08:39:52;;;;;;;2.88;1.17;;;24.80;99.90;;;;;;5027741;28;20034;-63
2022/07/12 08:42:18;;;;;;;6.82;1.00;;;24.90;99.90;;;;;;5023182;28;20420;-64
2022/07/12 08:44:53;;;;;;;3.95;1.73;;;25.00;99.90;;;;;;5023350;28;20125;-63
2022/07/12 08:47:18;;;;;;;3.13;1.50;;;25.20;99.90;;;;;;5022434;28;20389;-63
2022/07/12 08:50:14;;;;;;;1.52;0.80;;;25.40;99.90;;;;;;5030302;28;20116;-63
2022/07/12 08:52:45;;;;;;;1.73;1.00;;;25.50;99.90;;;;;;5024733;28;20088;-62
2022/07/12 08:55:18;;;;;;;1.33;0.82;;;25.40;99.90;;;;;;5021968;28;20026;-64
2022/07/12 08:57:43;;;;;;;3.70;1.00;;;25.40;99.90;;;;;;5025682;28;20529;-62
2022/07/12 09:00:11;;;;;;;2.75;1.20;;;25.40;99.90;;;;;;5025914;28;20112;-63
2022/07/12 09:02:54;;;;;;;3.72;1.33;;;25.30;99.90;;;;;;5025807;28;20063;-62
2022/07/12 09:05:24;;;;;;;1.48;0.93;;;25.50;99.90;;;;;;5033535;28;20057;-63
2022/07/12 09:07:51;;;;;;;6.80;1.03;;;25.60;99.90;;;;;;5017500;28;20096;-63
2022/07/12 09:10:18;;;;;;;3.55;1.00;;;25.60;99.90;;;;;;5031301;28;20035;-63
2022/07/12 09:12:44;;;;;;;6.40;1.08;;;25.50;99.90;;;;;;5015002;28;20022;-63
2022/07/12 09:15:21;;;;;;;5.78;1.00;;;25.40;99.90;;;;;;5016241;28;20044;-64
2022/07/12 09:18:03;;;;;;;6.65;1.10;;;25.60;99.90;;;;;;5028889;28;20029;-64
2022/07/12 09:20:36;;;;;;;;;;;25.60;99.90;;;;;;5033718;28;20116;-62
2022/07/12 09:23:08;;;;;;;7.28;1.45;;;25.90;99.90;;;;;;5038665;28;19921;-62
2022/07/12 09:25:35;;;;;;;1.58;1.00;;;25.80;99.90;;;;;;5032939;28;20029;-62
2022/07/12 09:28:04;;;;;;;5.78;1.08;;;25.70;99.90;;;;;;5034927;28;20111;-63
2022/07/12 09:30:31;;;;;;;4.47;1.20;;;25.70;99.90;;;;;;5030399;28;20482;-63
2022/07/12 09:36:07;;;;;;;4.78;1.20;;;26.20;99.90;;;;;;5027334;28;20566;-62
2022/07/12 09:38:33;;;;;;;2.28;1.50;;;26.40;99.90;;;;;;5034333;28;20552;-61
2022/07/12 09:41:00;;;;;;;4.07;1.52;;;26.50;99.90;;;;;;5032635;28;20159;-63
2022/07/12 09:43:26;;;;;;;2.60;0.90;;;26.70;99.90;;;;;;5034173;28;20037;-62
2022/07/12 09:45:52;;;;;;;2.00;1.15;;;26.90;99.90;;;;;;5031952;28;20116;-62
2022/07/12 09:48:20;;;;;;;5.50;1.33;;;26.70;99.90;;;;;;5032103;28;20183;-63
2022/07/12 09:50:50;;;;;;;4.00;1.05;;;27.00;99.90;;;;;;5031674;28;20094;-63
2022/07/12 09:53:22;;;;;;;2.85;1.70;;;27.20;99.60;;;;;;5031897;28;20496;-63
2022/07/12 09:55:51;;;;;;;4.15;1.60;;;27.00;99.90;;;;;;5027852;28;20143;-63
2022/07/12 09:58:23;;;;;;;2.15;1.20;;;27.00;99.90;;;;;;5036212;28;20037;-63
2022/07/12 10:00:52;;;;;;;5.93;1.27;;;27.40;99.80;;;;;;5037481;28;20049;-63
2022/07/12 10:03:20;;;;;;;2.92;1.20;;;27.10;99.60;;;;;;5029321;28;20034;-62
2022/07/12 10:05:48;;;;;;;3.53;1.00;;;26.90;99.90;;;;;;5038242;28;20029;-63
2022/07/12 10:08:13;;;;;;;1.95;1.02;;;26.70;99.90;;;;;;5028374;28;20125;-64
2022/07/12 10:10:40;;;;;;;2.30;1.17;;;26.70;99.90;;;;;;5029750;28;20507;-64
2022/07/12 10:13:06;;;;;;;5.95;1.30;;;26.60;99.90;;;;;;5029690;28;20060;-63
2022/07/12 10:15:33;;;;;;;9.85;2.03;;;26.50;99.90;;;;;;5029504;28;20057;-63
2022/07/12 10:18:00;;;;;;;2.45;0.88;;;26.40;99.90;;;;;;5024606;28;20022;-63
2022/07/12 10:20:27;;;;;;;2.25;1.10;;;26.50;99.90;;;;;;5034166;28;20026;-63
2022/07/12 10:22:54;;;;;;;3.38;0.95;;;26.60;99.90;;;;;;5033141;28;20045;-63
2022/07/12 10:25:26;;;;;;;8.02;1.60;;;26.60;99.90;;;;;;5030292;28;20056;-63
2022/07/12 10:27:51;;;;;;;4.30;1.20;;;26.80;99.90;;;;;;5041600;28;20220;-64
2022/07/12 10:30:23;;;;;;;6.35;1.85;;;26.90;99.90;;;;;;5025851;28;20556;-64
2022/07/12 10:32:50;;;;;;;3.00;1.20;;;26.80;99.60;;;;;;5022959;28;20032;-61
2022/07/12 10:35:18;;;;;;;3.42;1.30;;;26.50;99.90;;;;;;5035837;28;20049;-63
2022/07/12 10:38:11;;;;;;;3.97;1.55;;;26.60;99.90;;;;;;5035765;28;20483;-63
2022/07/12 10:40:43;;;;;;;5.50;1.88;;;26.70;99.70;;;;;;5038083;28;20033;-61
2022/07/12 10:43:09;;;;;;;3.55;1.58;;;26.70;98.90;;;;;;5033889;28;20025;-64
2022/07/12 10:45:40;;;;;;;5.47;1.40;;;26.80;99.10;;;;;;5023893;28;20060;-63
2022/07/12 10:48:15;;;;;;;1.35;0.93;;;26.70;98.90;;;;;;5022604;28;20485;-63
2022/07/12 10:53:18;;;;;;;6.93;1.10;;;26.60;98.50;;;;;;5031823;28;20030;-63
2022/07/12 10:56:06;;;;;;;1.65;1.30;;;26.60;98.70;;;;;;5034936;28;20374;-62
2022/07/12 10:58:46;;;;;;;4.40;1.60;;;26.60;98.40;;;;;;5042703;28;20025;-63
2022/07/12 11:01:18;;;;;;;3.03;1.20;;;26.20;99.10;;;;;;5029822;28;20030;-63
2022/07/12 11:03:51;;;;;;;2.20;1.13;;;26.50;98.60;;;;;;5043269;28;20079;-63
2022/07/12 11:06:24;;;;;;;3.75;1.40;;;26.90;98.10;;;;;;5031250;28;20036;-63
2022/07/12 11:08:57;;;;;;;5.55;1.30;;;26.70;98.20;;;;;;5037808;28;20139;-62
2022/07/12 11:11:27;;;;;;;5.40;1.30;;;26.70;97.70;;;;;;5033981;28;20037;-64
2022/07/12 11:13:54;;;;;;;1.25;1.13;;;26.50;97.30;;;;;;5045412;28;20556;-62
2022/07/12 11:16:21;;;;;;;5.28;0.98;;;26.20;98.30;;;;;;5042410;28;20146;-62
2022/07/12 11:18:47;;;;;;;4.03;1.00;;;26.00;99.00;;;;;;5036507;28;20493;-62
2022/07/12 11:21:13;;;;;;;5.05;0.98;;;25.60;99.90;;;;;;5029222;28;20041;-63
2022/07/12 11:23:40;;;;;;;5.03;1.25;;;25.20;99.90;;;;;;5037449;28;20038;-63
2022/07/12 11:26:07;;;;;;;4.75;1.08;;;25.30;99.90;;;;;;5026101;28;20479;-63
2022/07/12 11:28:33;;;;;;;7.78;1.08;;;26.10;99.30;;;;;;5026753;28;20038;-63
2022/07/12 11:31:07;;;;;;;2.55;1.27;;;26.70;97.60;;;;;;5025795;28;20499;-63
2022/07/12 11:33:36;;;;;;;1.50;1.20;;;27.00;96.80;;;;;;5024275;28;20041;-63
2022/07/12 11:36:05;;;;;;;4.10;1.10;;;27.00;96.00;;;;;;5022848;28;20028;-63
2022/07/12 11:38:32;;;;;;;5.30;1.27;;;26.80;96.10;;;;;;5029617;28;20491;-62
2022/07/12 11:41:02;;;;;;;4.15;1.27;;;26.70;96.30;;;;;;5029622;28;20046;-62
2022/07/12 11:43:28;;;;;;;3.47;1.65;;;26.80;95.80;;;;;;5027780;28;20397;-63
2022/07/12 11:45:55;;;;;;;4.13;1.30;;;27.20;95.70;;;;;;5027447;28;20136;-63
2022/07/12 11:48:22;;;;;;;4.45;1.33;;;28.20;93.80;;;;;;5031449;28;20040;-65
2022/07/12 11:50:51;;;;;;;3.08;1.20;;;28.20;93.80;;;;;;5029445;28;20394;-63
2022/07/12 11:53:26;;;;;;;5.97;1.30;;;28.50;93.10;;;;;;5030789;28;20029;-63
2022/07/12 11:55:57;;;;;;;4.82;1.30;;;28.60;92.40;;;;;;5025454;28;20033;-63
2022/07/12 11:58:24;;;;;;;4.78;1.27;;;28.90;91.80;;;;;;5029806;28;20096;-63
2022/07/12 12:00:51;;;;;;;3.30;1.27;;;29.40;91.20;;;;;;5024615;28;20052;-62
2022/07/12 12:03:18;;;;;;;3.28;1.58;;;29.90;90.30;;;;;;5034745;28;20035;-63
2022/07/12 12:05:46;;;;;;;8.25;2.33;;;30.40;88.80;;;;;;5028931;28;20025;-64
2022/07/12 12:08:14;;;;;;;4.90;1.60;;;30.60;85.40;;;;;;5033234;28;20076;-64
2022/07/12 12:10:41;;;;;;;5.55;1.25;;;30.70;84.20;;;;;;5029088;28;20049;-64
2022/07/12 12:13:17;;;;;;;6.30;1.05;;;30.80;83.80;;;;;;5027837;28;20084;-63
2022/07/12 12:15:51;;;;;;;5.13;1.20;;;31.10;81.40;;;;;;5024834;28;20041;-64
2022/07/12 12:18:27;;;;;;;3.13;1.10;;;30.90;79.80;;;;;;5032973;28;20048;-64
2022/07/12 12:20:58;;;;;;;8.77;1.55;;;31.30;78.80;;;;;;5029628;28;20374;-63
2022/07/12 12:23:23;;;;;;;5.90;1.23;;;31.50;76.80;;;;;;5035412;28;20116;-63
2022/07/12 12:25:49;;;;;;;4.70;1.10;;;31.10;78.00;;;;;;5036396;28;20461;-63
2022/07/12 12:28:15;;;;;;;2.60;1.30;;;31.10;76.50;;;;;;5031208;28;20038;-64
2022/07/12 12:30:52;;;;;;;7.80;1.30;;;30.80;77.40;;;;;;5030273;28;20127;-63
2022/07/12 12:33:35;;;;;;;3.55;2.17;;;30.60;78.50;;;;;;5027453;28;20033;-63
2022/07/12 12:36:25;;;;;;;3.00;1.05;;;31.10;76.50;;;;;;5033608;28;20021;-63
2022/07/12 12:38:52;;;;;;;3.15;1.23;;;30.40;77.60;;;;;;5034262;28;20037;-64
2022/07/12 12:41:21;;;;;;;4.93;1.30;;;30.70;76.90;;;;;;5032418;28;20525;-60
2022/07/12 12:43:47;;;;;;;6.65;1.38;;;30.00;78.40;;;;;;5028706;28;20026;-64
2022/07/12 12:46:12;;;;;;;5.20;1.20;;;29.60;79.90;;;;;;5031008;28;20022;-63
2022/07/12 12:48:46;;;;;;;4.00;1.38;;;29.40;82.30;;;;;;5033921;28;20091;-63
2022/07/12 12:51:12;;;;;;;1.73;1.35;;;29.10;83.90;;;;;;5031299;28;20108;-63
2022/07/12 12:53:39;;;;;;;6.20;1.40;;;29.00;85.00;;;;;;5038679;28;20461;-64
2022/07/12 12:56:09;;;;;;;7.93;1.40;;;28.60;87.00;;;;;;5030599;28;20068;-63
2022/07/12 12:58:35;;;;;;;1.75;1.20;;;28.60;89.30;;;;;;5034205;28;20029;-63
2022/07/12 13:01:01;;;;;;;3.50;1.45;;;28.60;89.80;;;;;;5028980;28;20029;-64
2022/07/12 13:03:27;;;;;;;6.22;1.65;;;28.50;90.10;;;;;;5037255;28;20504;-64